Buoy 41503

sailwx.info

Track history (hours):
 
Tides and Currents Weather Stations Pressure Air Temp Water Temp Dewpoint Dewpoint Depression Visibility Wind Speed Wind Dir Waves Ship Positions

Drifting buoy 41503

Last reported at 2015-Sep-25 06:03 UTC. Time now 2016-Dec-08 11:51 UTC.
Position N 37°19' W 064°24'.
Warning: this ship's position is years out of date!

Date/timePositionNaut miles runAvg speedWind from/ knotsBaromVisibWave heightAir tempDewpointWater temp
2015-Sep-25 06:03N 37°19' W 064°24'0 0.0
2015-Sep-23 23:45N 37°19' W 064°24'1 0.6
2015-Sep-23 21:59N 37°18' W 064°25'0 0.0 27.3
2015-Sep-23 21:47N 37°18' W 064°25'1 0.7
2015-Sep-23 20:00N 37°17' W 064°26'2 0.8 27.3
2015-Sep-23 17:58N 37°17' W 064°28'1 7.0
2015-Sep-23 17:48N 37°18' W 064°29'0 0.0
2015-Sep-23 16:10N 37°18' W 064°29'1 2.4 27.2
2015-Sep-23 15:50N 37°17' W 064°30'0 0.0
2015-Sep-23 15:02N 37°17' W 064°30'217.0 27.2
2015-Sep-23 14:56N 37°17' W 064°32'2 0.5 27.2
2015-Sep-23 11:55N 37°17' W 064°34'1 0.4 27.2
2015-Sep-23 09:29N 37°16' W 064°35'1 2.5 27.2
2015-Sep-23 08:55N 37°16' W 064°37'0 0.4 27.2
2015-Sep-23 08:14N 37°16' W 064°36'0 1.3 27.2
2015-Sep-23 08:07N 37°16' W 064°36'1 8.4
2015-Sep-23 08:03N 37°15' W 064°36'0 0.0 27.2
2015-Sep-23 07:48N 37°15' W 064°36'0 0.1
2015-Sep-23 06:32N 37°15' W 064°36'6 0.7
2015-Sep-22 22:16N 37°12' W 064°43'0 0.6 27.4
2015-Sep-22 21:57N 37°12' W 064°42'2 1.0 27.4
2015-Sep-22 20:12N 37°10' W 064°44'2 0.8 27.4
2015-Sep-22 18:09N 37°09' W 064°44'2 0.2 27.4
2015-Sep-22 10:58N 37°07' W 064°45'0 5.9 27.4
2015-Sep-22 10:55N 37°07' W 064°45'1 0.8 27.4
2015-Sep-22 09:16N 37°06' W 064°46'1 0.6 27.3
2015-Sep-22 08:15N 37°06' W 064°47'2 0.6 27.3
2015-Sep-22 04:58N 37°04' W 064°47'121.3
2015-Sep-22 04:54N 37°02' W 064°48'0 0.0
2015-Sep-22 03:06N 37°02' W 064°48'1 1.2 27.3
2015-Sep-22 02:07N 37°01' W 064°48'0 0.0 27.3
2015-Sep-22 00:34N 37°01' W 064°48'1 0.8 27.3
2015-Sep-21 22:48N 36°60' W 064°48'0 0.8 27.4
2015-Sep-21 22:10N 36°59' W 064°48'0 3.0 27.4
2015-Sep-21 22:06N 36°59' W 064°48'1 0.9 27.4
2015-Sep-21 21:09N 36°59' W 064°48'0 0.7 27.4
2015-Sep-21 20:31N 36°58' W 064°48'0 1.4 27.4
2015-Sep-21 20:27N 36°58' W 064°48'0 0.5 27.4
2015-Sep-21 19:57N 36°58' W 064°47'125.4
2015-Sep-21 19:54N 36°57' W 064°46'0 0.0 27.4
2015-Sep-21 19:27N 36°57' W 064°46'0 0.0 27.4
2015-Sep-21 18:20N 36°57' W 064°46'1 0.6 27.4
2015-Sep-21 16:38N 36°57' W 064°47'0 0.6 27.4
2015-Sep-21 15:47N 36°57' W 064°46'1 4.5 27.4
2015-Sep-21 15:39N 36°56' W 064°45'0 0.0 27.4
2015-Sep-21 14:55N 36°56' W 064°45'0 0.6 27.5
2015-Sep-21 14:08N 36°56' W 064°46'1 6.3 27.5
2015-Sep-21 14:01N 36°57' W 064°46'0 0.0 27.5
2015-Sep-21 12:23N 36°57' W 064°46'1 9.4 27.6
2015-Sep-21 12:19N 36°56' W 064°47'1 3.8 27.6
2015-Sep-21 12:09N 36°57' W 064°46'2 0.7 27.6
2015-Sep-21 09:02N 36°56' W 064°48'122.5 27.7
2015-Sep-21 08:59N 36°55' W 064°49'1 0.8 27.7
2015-Sep-21 08:03N 36°54' W 064°50'0 0.0 27.7
2015-Sep-21 06:56N 36°54' W 064°50'2 1.4 27.8
2015-Sep-21 05:11N 36°52' W 064°51'5 1.3 27.8
2015-Sep-21 00:56N 36°47' W 064°54'0 0.0 27.8
2015-Sep-21 00:50N 36°47' W 064°54'1 1.4 27.8
2015-Sep-21 00:08N 36°46' W 064°54'1 7.8 27.8
2015-Sep-21 00:01N 36°45' W 064°53'0 0.0 27.8
2015-Sep-20 23:21N 36°45' W 064°53'1 4.2 27.8
2015-Sep-20 23:06N 36°44' W 064°54'2 2.6 27.8
2015-Sep-20 22:16N 36°42' W 064°54'1 0.4 27.8
2015-Sep-20 20:10N 36°41' W 064°53'115.1 27.8
2015-Sep-20 20:07N 36°41' W 064°54'0 0.0 27.8
2015-Sep-20 19:49N 36°41' W 064°54'0 0.3 27.8
2015-Sep-20 18:59N 36°41' W 064°54'4 1.3 27.7
2015-Sep-20 16:08N 36°37' W 064°55'5 1.3 27.8
2015-Sep-20 11:54N 36°32' W 064°55'1 1.1 27.7
2015-Sep-20 10:59N 36°31' W 064°55'1 7.6 27.7
2015-Sep-20 10:54N 36°31' W 064°55'1 1.4 27.7
2015-Sep-20 10:16N 36°30' W 064°55'1 4.0 27.7
2015-Sep-20 10:03N 36°29' W 064°56'0 0.0 27.7
2015-Sep-20 09:27N 36°29' W 064°56'0 2.2 27.7
2015-Sep-20 09:14N 36°29' W 064°55'0 4.5 27.7
2015-Sep-20 09:10N 36°29' W 064°55'2 1.1 27.7
2015-Sep-20 07:04N 36°27' W 064°55'211.3 27.8
2015-Sep-20 06:56N 36°25' W 064°55'2 0.6 27.8
2015-Sep-20 02:50N 36°23' W 064°55'116.3 27.8
2015-Sep-20 02:48N 36°22' W 064°55'0 0.0 27.8
2015-Sep-20 02:10N 36°22' W 064°55'1 1.4 27.8
2015-Sep-20 01:06N 36°21' W 064°55'1 0.4 27.8
2015-Sep-19 23:50N 36°20' W 064°55'2 0.9 27.8
2015-Sep-19 21:58N 36°19' W 064°55'1 1.1 27.9
2015-Sep-19 20:50N 36°17' W 064°56'2 3.4 27.9
2015-Sep-19 20:17N 36°15' W 064°56'0 0.0 27.8
2015-Sep-19 20:12N 36°15' W 064°56'0 0.4 27.8
2015-Sep-19 19:12N 36°15' W 064°56'0 0.0 27.9
2015-Sep-19 18:42N 36°15' W 064°56'111.2 27.9
2015-Sep-19 18:34N 36°14' W 064°56'2 1.4 27.9
2015-Sep-19 17:00N 36°12' W 064°56'0 0.0 27.9
2015-Sep-19 15:35N 36°12' W 064°56'0 0.4 27.9
2015-Sep-19 14:43N 36°12' W 064°56'123.3 27.9
2015-Sep-19 14:40N 36°10' W 064°56'0 0.0 27.8
2015-Sep-19 13:56N 36°10' W 064°56'1 0.8 27.8
2015-Sep-19 13:07N 36°10' W 064°56'1 1.5 27.8
2015-Sep-19 12:10N 36°08' W 064°56'0 0.0 27.7
2015-Sep-19 11:32N 36°08' W 064°56'0 1.0 27.7
2015-Sep-19 11:09N 36°08' W 064°56'0 3.8 27.7
2015-Sep-19 11:03N 36°08' W 064°55'014.6 27.7
2015-Sep-19 11:01N 36°08' W 064°56'1 0.7 27.7
2015-Sep-19 09:23N 36°07' W 064°56'0 1.1 27.7
2015-Sep-19 08:56N 36°06' W 064°56'0 2.8 27.7
2015-Sep-19 08:50N 36°06' W 064°56'1 0.7 27.7
2015-Sep-19 07:20N 36°05' W 064°56'1 6.2 27.7
2015-Sep-19 07:08N 36°04' W 064°55'0 0.0 27.7
2015-Sep-19 05:32N 36°04' W 064°55'227.1 27.7
2015-Sep-19 05:28N 36°02' W 064°55'2 0.4 27.7
2015-Sep-19 00:48N 36°00' W 064°55'0 0.4 27.7
2015-Sep-18 23:56N 35°60' W 064°55'1 8.4 27.7
2015-Sep-18 23:50N 35°59' W 064°55'1 0.7 27.7
2015-Sep-18 22:14N 35°58' W 064°55'0 0.0 27.8
2015-Sep-18 21:06N 35°58' W 064°55'0 0.0 27.8
2015-Sep-18 21:02N 35°58' W 064°55'0 0.6 27.8
2015-Sep-18 20:43N 35°58' W 064°55'1 0.7 27.8
2015-Sep-18 18:54N 35°56' W 064°55'1 0.8 27.8
2015-Sep-18 17:14N 35°55' W 064°55'0 0.0 27.9
2015-Sep-18 17:11N 35°55' W 064°55'2 1.3 27.9
2015-Sep-18 15:54N 35°53' W 064°55'0 0.0 27.9
2015-Sep-18 15:12N 35°53' W 064°55'1 6.3 27.9
2015-Sep-18 15:03N 35°53' W 064°54'0 0.0 27.9
2015-Sep-18 15:00N 35°53' W 064°54'2 0.5 27.9
2015-Sep-18 11:15N 35°51' W 064°55'0 6.3 27.9
2015-Sep-18 11:12N 35°51' W 064°55'0 0.0 27.9
2015-Sep-18 11:05N 35°51' W 064°55'1 3.4 27.9
2015-Sep-18 10:55N 35°50' W 064°55'1 0.6 27.9
2015-Sep-18 09:08N 35°49' W 064°55'1 8.3 27.9
2015-Sep-18 09:02N 35°48' W 064°54'1 0.3 27.9
2015-Sep-18 07:19N 35°48' W 064°54'2 0.4 27.9
2015-Sep-18 02:45N 35°46' W 064°55'0 0.5 27.9
2015-Sep-18 01:57N 35°46' W 064°55'0 1.0 27.9
2015-Sep-18 01:54N 35°46' W 064°55'1 7.6 27.9
2015-Sep-18 01:48N 35°45' W 064°55'0 0.5 27.9
2015-Sep-18 01:12N 35°45' W 064°56'0 1.0 27.9
2015-Sep-18 01:09N 35°45' W 064°56'1 6.1 27.9
2015-Sep-18 01:03N 35°44' W 064°55'1 2.8 27.9
2015-Sep-18 00:50N 35°45' W 064°56'1 0.8 27.9
2015-Sep-17 22:57N 35°43' W 064°55'0 0.3 27.9
2015-Sep-17 22:46N 35°43' W 064°55'2 1.4 27.9
2015-Sep-17 21:08N 35°41' W 064°56'0 0.1 27.9
2015-Sep-17 19:06N 35°41' W 064°56'0 0.7 28.0
2015-Sep-17 18:59N 35°41' W 064°56'3 0.6 28.0
2015-Sep-17 13:46N 35°38' W 064°56'222.8 27.8
2015-Sep-17 13:42N 35°36' W 064°56'0 0.0 27.8
2015-Sep-17 11:31N 35°36' W 064°56'0 0.0 27.8
2015-Sep-17 11:30N 35°36' W 064°56'0 0.0 27.8
2015-Sep-17 11:28N 35°36' W 064°56'1 6.6 27.8
2015-Sep-17 11:19N 35°35' W 064°56'0 1.6 27.8
2015-Sep-17 11:00N 35°35' W 064°56'0 0.4 27.8
2015-Sep-17 09:45N 35°35' W 064°56'021.8 27.8
2015-Sep-17 09:44N 35°35' W 064°56'0 3.7 27.9
2015-Sep-17 09:41N 35°35' W 064°56'0 0.0 27.9
2015-Sep-17 09:15N 35°35' W 064°56'155.3
2015-Sep-17 09:14N 35°34' W 064°55'0 0.0 27.9
2015-Sep-17 08:07N 35°34' W 064°55'0 3.7 27.9
2015-Sep-17 08:03N 35°34' W 064°55'0 0.0 27.9
2015-Sep-17 07:42N 35°34' W 064°55'1 3.3 28.1
2015-Sep-17 07:30N 35°33' W 064°56'0 0.0 28.1
2015-Sep-17 05:57N 35°33' W 064°56'114.8 28.1
2015-Sep-17 05:51N 35°32' W 064°57'0 0.0 28.1
2015-Sep-17 03:10N 35°32' W 064°57'0 0.3 28.1
2015-Sep-17 02:16N 35°32' W 064°57'1 6.1 28.1
2015-Sep-17 02:09N 35°31' W 064°57'0 0.1 28.1
2015-Sep-17 01:31N 35°31' W 064°57'1 0.6 28.1
2015-Sep-17 00:38N 35°31' W 064°57'0 0.0 28.1
2015-Sep-17 00:31N 35°31' W 064°57'0 0.6 28.1
2015-Sep-16 23:51N 35°31' W 064°57'127.2 28.1
2015-Sep-16 23:49N 35°30' W 064°57'118.1 28.1
2015-Sep-16 23:46N 35°31' W 064°57'1 1.5 28.1
2015-Sep-16 23:10N 35°30' W 064°57'1 8.6 28.1
2015-Sep-16 23:05N 35°29' W 064°57'1 0.8 28.1
2015-Sep-16 21:31N 35°28' W 064°57'0 0.0 28.1
2015-Sep-16 19:52N 35°28' W 064°57'0 0.2 27.9
2015-Sep-16 19:15N 35°28' W 064°57'0 2.2 27.9
2015-Sep-16 19:11N 35°28' W 064°57'3 0.6 27.9
2015-Sep-16 14:59N 35°26' W 064°57'1 0.7 27.9
2015-Sep-16 14:12N 35°25' W 064°57'1 4.7 27.9
2015-Sep-16 14:02N 35°24' W 064°56'0 0.0 27.9
2015-Sep-16 11:53N 35°24' W 064°56'1 1.3 27.8
2015-Sep-16 11:30N 35°24' W 064°56'1 0.5 27.8
2015-Sep-16 10:15N 35°23' W 064°56'0 0.7 27.8
2015-Sep-16 10:05N 35°23' W 064°56'0 0.7 27.8
2015-Sep-16 10:01N 35°23' W 064°56'0 4.9 27.8
2015-Sep-16 09:55N 35°24' W 064°56'1 0.6 27.8
2015-Sep-16 08:30N 35°23' W 064°56'0 0.5 27.9
2015-Sep-16 08:20N 35°23' W 064°56'0 0.0 27.9
2015-Sep-16 08:11N 35°23' W 064°56'0 0.8 27.9
2015-Sep-16 07:52N 35°22' W 064°56'1 4.3 27.9
2015-Sep-16 07:42N 35°22' W 064°56'0 0.0 27.9
2015-Sep-16 06:10N 35°22' W 064°56'0 0.0 27.9
2015-Sep-16 06:07N 35°22' W 064°56'216.3 27.9
2015-Sep-16 06:00N 35°20' W 064°57'0 0.1
2015-Sep-16 01:45N 35°19' W 064°56'1 0.9 28.0
2015-Sep-16 00:58N 35°19' W 064°57'0 0.6 28.0
2015-Sep-16 00:10N 35°18' W 064°57'113.3 28.1
2015-Sep-16 00:06N 35°18' W 064°57'0 0.0 28.1
2015-Sep-15 23:16N 35°18' W 064°57'0 0.0 28.1
2015-Sep-15 21:57N 35°18' W 064°57'0 0.4 28.1
2015-Sep-15 20:49N 35°17' W 064°56'0 0.2 28.2
2015-Sep-15 19:58N 35°17' W 064°56'1 0.3 28.2
2015-Sep-15 17:45N 35°17' W 064°57'1 0.5 28.2
2015-Sep-15 16:04N 35°16' W 064°58'0 5.8 28.2
2015-Sep-15 16:00N 35°16' W 064°57'2 0.4 28.2
2015-Sep-15 10:14N 35°14' W 064°58'1 5.3 28.3
2015-Sep-15 10:07N 35°14' W 064°58'118.1 28.3
2015-Sep-15 10:04N 35°13' W 064°58'0 0.0 28.3
2015-Sep-15 08:54N 35°13' W 064°58'0 0.0 28.3
2015-Sep-15 08:44N 35°13' W 064°58'1 1.1 28.3
2015-Sep-15 08:04N 35°13' W 064°59'0 3.1 28.3
2015-Sep-15 07:57N 35°13' W 064°59'1 0.6 28.3
2015-Sep-15 06:16N 35°12' W 064°59'230.8 28.4
2015-Sep-15 06:13N 35°10' W 064°59'   28.4
Track history (hours):
 
Tides and Currents Weather Stations Pressure Air Temp Water Temp Dewpoint Dewpoint Depression Visibility Wind Speed Wind Dir Waves Ship Positions

Drifting buoy 41503

Last reported at 2015-Sep-25 06:03 UTC. Time now 2016-Dec-08 11:51 UTC.
Position N 37°19' W 064°24'.
Warning: this ship's position is years out of date!

Date/timePositionNaut miles runAvg speedWind from/ knotsBaromVisibWave heightAir tempDewpointWater temp
2015-Sep-25 06:03N 37°19' W 064°24'0 0.0
2015-Sep-23 23:45N 37°19' W 064°24'1 0.6
2015-Sep-23 21:59N 37°18' W 064°25'0 0.0 27.3
2015-Sep-23 21:47N 37°18' W 064°25'1 0.7
2015-Sep-23 20:00N 37°17' W 064°26'2 0.8 27.3
2015-Sep-23 17:58N 37°17' W 064°28'1 7.0
2015-Sep-23 17:48N 37°18' W 064°29'0 0.0
2015-Sep-23 16:10N 37°18' W 064°29'1 2.4 27.2
2015-Sep-23 15:50N 37°17' W 064°30'0 0.0
2015-Sep-23 15:02N 37°17' W 064°30'217.0 27.2
2015-Sep-23 14:56N 37°17' W 064°32'2 0.5 27.2
2015-Sep-23 11:55N 37°17' W 064°34'1 0.4 27.2
2015-Sep-23 09:29N 37°16' W 064°35'1 2.5 27.2
2015-Sep-23 08:55N 37°16' W 064°37'0 0.4 27.2
2015-Sep-23 08:14N 37°16' W 064°36'0 1.3 27.2
2015-Sep-23 08:07N 37°16' W 064°36'1 8.4
2015-Sep-23 08:03N 37°15' W 064°36'0 0.0 27.2
2015-Sep-23 07:48N 37°15' W 064°36'0 0.1
2015-Sep-23 06:32N 37°15' W 064°36'6 0.7
2015-Sep-22 22:16N 37°12' W 064°43'0 0.6 27.4
2015-Sep-22 21:57N 37°12' W 064°42'2 1.0 27.4
2015-Sep-22 20:12N 37°10' W 064°44'2 0.8 27.4
2015-Sep-22 18:09N 37°09' W 064°44'2 0.2 27.4
2015-Sep-22 10:58N 37°07' W 064°45'0 5.9 27.4
2015-Sep-22 10:55N 37°07' W 064°45'1 0.8 27.4
2015-Sep-22 09:16N 37°06' W 064°46'1 0.6 27.3
2015-Sep-22 08:15N 37°06' W 064°47'2 0.6 27.3
2015-Sep-22 04:58N 37°04' W 064°47'121.3
2015-Sep-22 04:54N 37°02' W 064°48'0 0.0
2015-Sep-22 03:06N 37°02' W 064°48'1 1.2 27.3
2015-Sep-22 02:07N 37°01' W 064°48'0 0.0 27.3
2015-Sep-22 00:34N 37°01' W 064°48'1 0.8 27.3
2015-Sep-21 22:48N 36°60' W 064°48'0 0.8 27.4
2015-Sep-21 22:10N 36°59' W 064°48'0 3.0 27.4
2015-Sep-21 22:06N 36°59' W 064°48'1 0.9 27.4
2015-Sep-21 21:09N 36°59' W 064°48'0 0.7 27.4
2015-Sep-21 20:31N 36°58' W 064°48'0 1.4 27.4
2015-Sep-21 20:27N 36°58' W 064°48'0 0.5 27.4
2015-Sep-21 19:57N 36°58' W 064°47'125.4
2015-Sep-21 19:54N 36°57' W 064°46'0 0.0 27.4
2015-Sep-21 19:27N 36°57' W 064°46'0 0.0 27.4
2015-Sep-21 18:20N 36°57' W 064°46'1 0.6 27.4
2015-Sep-21 16:38N 36°57' W 064°47'0 0.6 27.4
2015-Sep-21 15:47N 36°57' W 064°46'1 4.5 27.4
2015-Sep-21 15:39N 36°56' W 064°45'0 0.0 27.4
2015-Sep-21 14:55N 36°56' W 064°45'0 0.6 27.5
2015-Sep-21 14:08N 36°56' W 064°46'1 6.3 27.5
2015-Sep-21 14:01N 36°57' W 064°46'0 0.0 27.5
2015-Sep-21 12:23N 36°57' W 064°46'1 9.4 27.6
2015-Sep-21 12:19N 36°56' W 064°47'1 3.8 27.6
2015-Sep-21 12:09N 36°57' W 064°46'2 0.7 27.6
2015-Sep-21 09:02N 36°56' W 064°48'122.5 27.7
2015-Sep-21 08:59N 36°55' W 064°49'1 0.8 27.7
2015-Sep-21 08:03N 36°54' W 064°50'0 0.0 27.7
2015-Sep-21 06:56N 36°54' W 064°50'2 1.4 27.8
2015-Sep-21 05:11N 36°52' W 064°51'5 1.3 27.8
2015-Sep-21 00:56N 36°47' W 064°54'0 0.0 27.8
2015-Sep-21 00:50N 36°47' W 064°54'1 1.4 27.8
2015-Sep-21 00:08N 36°46' W 064°54'1 7.8 27.8
2015-Sep-21 00:01N 36°45' W 064°53'0 0.0 27.8
2015-Sep-20 23:21N 36°45' W 064°53'1 4.2 27.8
2015-Sep-20 23:06N 36°44' W 064°54'2 2.6 27.8
2015-Sep-20 22:16N 36°42' W 064°54'1 0.4 27.8
2015-Sep-20 20:10N 36°41' W 064°53'115.1 27.8
2015-Sep-20 20:07N 36°41' W 064°54'0 0.0 27.8
2015-Sep-20 19:49N 36°41' W 064°54'0 0.3 27.8
2015-Sep-20 18:59N 36°41' W 064°54'4 1.3 27.7
2015-Sep-20 16:08N 36°37' W 064°55'5 1.3 27.8
2015-Sep-20 11:54N 36°32' W 064°55'1 1.1 27.7
2015-Sep-20 10:59N 36°31' W 064°55'1 7.6 27.7
2015-Sep-20 10:54N 36°31' W 064°55'1 1.4 27.7
2015-Sep-20 10:16N 36°30' W 064°55'1 4.0 27.7
2015-Sep-20 10:03N 36°29' W 064°56'0 0.0 27.7
2015-Sep-20 09:27N 36°29' W 064°56'0 2.2 27.7
2015-Sep-20 09:14N 36°29' W 064°55'0 4.5 27.7
2015-Sep-20 09:10N 36°29' W 064°55'2 1.1 27.7
2015-Sep-20 07:04N 36°27' W 064°55'211.3 27.8
2015-Sep-20 06:56N 36°25' W 064°55'2 0.6 27.8
2015-Sep-20 02:50N 36°23' W 064°55'116.3 27.8
2015-Sep-20 02:48N 36°22' W 064°55'0 0.0 27.8
2015-Sep-20 02:10N 36°22' W 064°55'1 1.4 27.8
2015-Sep-20 01:06N 36°21' W 064°55'1 0.4 27.8
2015-Sep-19 23:50N 36°20' W 064°55'2 0.9 27.8
2015-Sep-19 21:58N 36°19' W 064°55'1 1.1 27.9
2015-Sep-19 20:50N 36°17' W 064°56'2 3.4 27.9
2015-Sep-19 20:17N 36°15' W 064°56'0 0.0 27.8
2015-Sep-19 20:12N 36°15' W 064°56'0 0.4 27.8
2015-Sep-19 19:12N 36°15' W 064°56'0 0.0 27.9
2015-Sep-19 18:42N 36°15' W 064°56'111.2 27.9
2015-Sep-19 18:34N 36°14' W 064°56'2 1.4 27.9
2015-Sep-19 17:00N 36°12' W 064°56'0 0.0 27.9
2015-Sep-19 15:35N 36°12' W 064°56'0 0.4 27.9
2015-Sep-19 14:43N 36°12' W 064°56'123.3 27.9
2015-Sep-19 14:40N 36°10' W 064°56'0 0.0 27.8
2015-Sep-19 13:56N 36°10' W 064°56'1 0.8 27.8
2015-Sep-19 13:07N 36°10' W 064°56'1 1.5 27.8
2015-Sep-19 12:10N 36°08' W 064°56'0 0.0 27.7
2015-Sep-19 11:32N 36°08' W 064°56'0 1.0 27.7
2015-Sep-19 11:09N 36°08' W 064°56'0 3.8 27.7
2015-Sep-19 11:03N 36°08' W 064°55'014.6 27.7
2015-Sep-19 11:01N 36°08' W 064°56'1 0.7 27.7
2015-Sep-19 09:23N 36°07' W 064°56'0 1.1 27.7
2015-Sep-19 08:56N 36°06' W 064°56'0 2.8 27.7
2015-Sep-19 08:50N 36°06' W 064°56'1 0.7 27.7
2015-Sep-19 07:20N 36°05' W 064°56'1 6.2 27.7
2015-Sep-19 07:08N 36°04' W 064°55'0 0.0 27.7
2015-Sep-19 05:32N 36°04' W 064°55'227.1 27.7
2015-Sep-19 05:28N 36°02' W 064°55'2 0.4 27.7
2015-Sep-19 00:48N 36°00' W 064°55'0 0.4 27.7
2015-Sep-18 23:56N 35°60' W 064°55'1 8.4 27.7
2015-Sep-18 23:50N 35°59' W 064°55'1 0.7 27.7
2015-Sep-18 22:14N 35°58' W 064°55'0 0.0 27.8
2015-Sep-18 21:06N 35°58' W 064°55'0 0.0 27.8
2015-Sep-18 21:02N 35°58' W 064°55'0 0.6 27.8
2015-Sep-18 20:43N 35°58' W 064°55'1 0.7 27.8
2015-Sep-18 18:54N 35°56' W 064°55'1 0.8 27.8
2015-Sep-18 17:14N 35°55' W 064°55'0 0.0 27.9
2015-Sep-18 17:11N 35°55' W 064°55'2 1.3 27.9
2015-Sep-18 15:54N 35°53' W 064°55'0 0.0 27.9
2015-Sep-18 15:12N 35°53' W 064°55'1 6.3 27.9
2015-Sep-18 15:03N 35°53' W 064°54'0 0.0 27.9
2015-Sep-18 15:00N 35°53' W 064°54'2 0.5 27.9
2015-Sep-18 11:15N 35°51' W 064°55'0 6.3 27.9
2015-Sep-18 11:12N 35°51' W 064°55'0 0.0 27.9
2015-Sep-18 11:05N 35°51' W 064°55'1 3.4 27.9
2015-Sep-18 10:55N 35°50' W 064°55'1 0.6 27.9
2015-Sep-18 09:08N 35°49' W 064°55'1 8.3 27.9
2015-Sep-18 09:02N 35°48' W 064°54'1 0.3 27.9
2015-Sep-18 07:19N 35°48' W 064°54'2 0.4 27.9
2015-Sep-18 02:45N 35°46' W 064°55'0 0.5 27.9
2015-Sep-18 01:57N 35°46' W 064°55'0 1.0 27.9
2015-Sep-18 01:54N 35°46' W 064°55'1 7.6 27.9
2015-Sep-18 01:48N 35°45' W 064°55'0 0.5 27.9
2015-Sep-18 01:12N 35°45' W 064°56'0 1.0 27.9
2015-Sep-18 01:09N 35°45' W 064°56'1 6.1 27.9
2015-Sep-18 01:03N 35°44' W 064°55'1 2.8 27.9
2015-Sep-18 00:50N 35°45' W 064°56'1 0.8 27.9
2015-Sep-17 22:57N 35°43' W 064°55'0 0.3 27.9
2015-Sep-17 22:46N 35°43' W 064°55'2 1.4 27.9
2015-Sep-17 21:08N 35°41' W 064°56'0 0.1 27.9
2015-Sep-17 19:06N 35°41' W 064°56'0 0.7 28.0
2015-Sep-17 18:59N 35°41' W 064°56'3 0.6 28.0
2015-Sep-17 13:46N 35°38' W 064°56'222.8 27.8
2015-Sep-17 13:42N 35°36' W 064°56'0 0.0 27.8
2015-Sep-17 11:31N 35°36' W 064°56'0 0.0 27.8
2015-Sep-17 11:30N 35°36' W 064°56'0 0.0 27.8
2015-Sep-17 11:28N 35°36' W 064°56'1 6.6 27.8
2015-Sep-17 11:19N 35°35' W 064°56'0 1.6 27.8
2015-Sep-17 11:00N 35°35' W 064°56'0 0.4 27.8
2015-Sep-17 09:45N 35°35' W 064°56'021.8 27.8
2015-Sep-17 09:44N 35°35' W 064°56'0 3.7 27.9
2015-Sep-17 09:41N 35°35' W 064°56'0 0.0 27.9
2015-Sep-17 09:15N 35°35' W 064°56'155.3
2015-Sep-17 09:14N 35°34' W 064°55'0 0.0 27.9
2015-Sep-17 08:07N 35°34' W 064°55'0 3.7 27.9
2015-Sep-17 08:03N 35°34' W 064°55'0 0.0 27.9
2015-Sep-17 07:42N 35°34' W 064°55'1 3.3 28.1
2015-Sep-17 07:30N 35°33' W 064°56'0 0.0 28.1
2015-Sep-17 05:57N 35°33' W 064°56'114.8 28.1
2015-Sep-17 05:51N 35°32' W 064°57'0 0.0 28.1
2015-Sep-17 03:10N 35°32' W 064°57'0 0.3 28.1
2015-Sep-17 02:16N 35°32' W 064°57'1 6.1 28.1
2015-Sep-17 02:09N 35°31' W 064°57'0 0.1 28.1
2015-Sep-17 01:31N 35°31' W 064°57'1 0.6 28.1
2015-Sep-17 00:38N 35°31' W 064°57'0 0.0 28.1
2015-Sep-17 00:31N 35°31' W 064°57'0 0.6 28.1
2015-Sep-16 23:51N 35°31' W 064°57'127.2 28.1
2015-Sep-16 23:49N 35°30' W 064°57'118.1 28.1
2015-Sep-16 23:46N 35°31' W 064°57'1 1.5 28.1
2015-Sep-16 23:10N 35°30' W 064°57'1 8.6 28.1
2015-Sep-16 23:05N 35°29' W 064°57'1 0.8 28.1
2015-Sep-16 21:31N 35°28' W 064°57'0 0.0 28.1
2015-Sep-16 19:52N 35°28' W 064°57'0 0.2 27.9
2015-Sep-16 19:15N 35°28' W 064°57'0 2.2 27.9
2015-Sep-16 19:11N 35°28' W 064°57'3 0.6 27.9
2015-Sep-16 14:59N 35°26' W 064°57'1 0.7 27.9
2015-Sep-16 14:12N 35°25' W 064°57'1 4.7 27.9
2015-Sep-16 14:02N 35°24' W 064°56'0 0.0 27.9
2015-Sep-16 11:53N 35°24' W 064°56'1 1.3 27.8
2015-Sep-16 11:30N 35°24' W 064°56'1 0.5 27.8
2015-Sep-16 10:15N 35°23' W 064°56'0 0.7 27.8
2015-Sep-16 10:05N 35°23' W 064°56'0 0.7 27.8
2015-Sep-16 10:01N 35°23' W 064°56'0 4.9 27.8
2015-Sep-16 09:55N 35°24' W 064°56'1 0.6 27.8
2015-Sep-16 08:30N 35°23' W 064°56'0 0.5 27.9
2015-Sep-16 08:20N 35°23' W 064°56'0 0.0 27.9
2015-Sep-16 08:11N 35°23' W 064°56'0 0.8 27.9
2015-Sep-16 07:52N 35°22' W 064°56'1 4.3 27.9
2015-Sep-16 07:42N 35°22' W 064°56'0 0.0 27.9
2015-Sep-16 06:10N 35°22' W 064°56'0 0.0 27.9
2015-Sep-16 06:07N 35°22' W 064°56'216.3 27.9
2015-Sep-16 06:00N 35°20' W 064°57'0 0.1
2015-Sep-16 01:45N 35°19' W 064°56'1 0.9 28.0
2015-Sep-16 00:58N 35°19' W 064°57'0 0.6 28.0
2015-Sep-16 00:10N 35°18' W 064°57'113.3 28.1
2015-Sep-16 00:06N 35°18' W 064°57'0 0.0 28.1
2015-Sep-15 23:16N 35°18' W 064°57'0 0.0 28.1
2015-Sep-15 21:57N 35°18' W 064°57'0 0.4 28.1
2015-Sep-15 20:49N 35°17' W 064°56'0 0.2 28.2
2015-Sep-15 19:58N 35°17' W 064°56'1 0.3 28.2
2015-Sep-15 17:45N 35°17' W 064°57'1 0.5 28.2
2015-Sep-15 16:04N 35°16' W 064°58'0 5.8 28.2
2015-Sep-15 16:00N 35°16' W 064°57'2 0.4 28.2
2015-Sep-15 10:14N 35°14' W 064°58'1 5.3 28.3
2015-Sep-15 10:07N 35°14' W 064°58'118.1 28.3
2015-Sep-15 10:04N 35°13' W 064°58'0 0.0 28.3
2015-Sep-15 08:54N 35°13' W 064°58'0 0.0 28.3
2015-Sep-15 08:44N 35°13' W 064°58'1 1.1 28.3
2015-Sep-15 08:04N 35°13' W 064°59'0 3.1 28.3
2015-Sep-15 07:57N 35°13' W 064°59'1 0.6 28.3
2015-Sep-15 06:16N 35°12' W 064°59'230.8 28.4
2015-Sep-15 06:13N 35°10' W 064°59'   28.4

Dump ship's entire track history